Time;durP1;ratioP1;P1;durP2;ratioP2;P2;SDS_P1;SDS_P2;PMS_P1;PMS_P2;Temp;Humidity;BMP_temperature;BMP_pressure;BME280_temperature;BME280_humidity;BME280_pressure;Samples;Min_cycle;Max_cycle;Signal;HPM_P1;HPM_P2
2023/03/14 00:00:00;;;;;;;2.10;1.27;;;;;;;;;;5051602;28;20061;-78
2023/03/14 00:02:27;;;;;;;1.83;0.98;;;;;;;;;;5034617;28;20059;-78
2023/03/14 00:04:55;;;;;;;3.65;1.27;;;;;;;;;;5033725;28;20053;-77
2023/03/14 00:07:24;;;;;;;1.45;0.90;;;;;;;;;;5052690;28;20167;-78
2023/03/14 00:09:51;;;;;;;2.97;1.05;;;;;;;;;;5063386;28;20064;-79
2023/03/14 00:12:17;;;;;;;2.08;0.70;;;;;;;;;;5065184;28;20044;-79
2023/03/14 00:14:45;;;;;;;1.30;0.73;;;;;;;;;;5084648;28;20056;-80
2023/03/14 00:17:13;;;;;;;2.20;1.00;;;;;;;;;;5069207;28;20071;-81
2023/03/14 00:19:40;;;;;;;1.45;0.70;;;;;;;;;;5066252;28;20041;-78
2023/03/14 00:22:10;;;;;;;1.05;0.75;;;;;;;;;;5064770;28;20112;-78
2023/03/14 00:24:37;;;;;;;2.25;0.68;;;;;;;;;;5064858;28;20048;-79
2023/03/14 00:27:03;;;;;;;3.58;0.90;;;;;;;;;;5054748;28;20049;-78
2023/03/14 00:29:30;;;;;;;0.80;0.60;;;;;;;;;;5049379;28;20420;-77
2023/03/14 00:31:56;;;;;;;0.88;0.50;;;;;;;;;;5032295;28;20071;-78
2023/03/14 00:34:23;;;;;;;1.05;0.65;;;;;;;;;;5032868;28;20127;-77
2023/03/14 00:36:49;;;;;;;2.60;0.70;;;;;;;;;;5065561;28;20593;-78
2023/03/14 00:39:16;;;;;;;1.38;0.60;;;;;;;;;;5031493;28;20072;-77
2023/03/14 00:41:42;;;;;;;1.40;0.70;;;;;;;;;;5049242;28;20037;-77
2023/03/14 00:44:09;;;;;;;0.65;0.50;;;;;;;;;;5048714;28;20052;-78
2023/03/14 00:46:36;;;;;;;3.08;0.50;;;;;;;;;;5049831;28;20064;-76
2023/03/14 00:49:05;;;;;;;0.93;0.43;;;;;;;;;;5030839;28;20041;-77
2023/03/14 00:51:32;;;;;;;3.42;0.95;;;;;;;;;;5049903;28;20517;-77
2023/03/14 00:53:59;;;;;;;1.02;0.60;;;;;;;;;;5014845;28;20095;-78
2023/03/14 00:56:27;;;;;;;2.50;0.30;;;;;;;;;;5045959;28;20068;-79
2023/03/14 00:58:55;;;;;;;0.32;0.30;;;;;;;;;;5049163;28;20048;-78
2023/03/14 01:01:22;;;;;;;1.17;0.30;;;;;;;;;;5040852;28;20033;-78
2023/03/14 01:03:53;;;;;;;0.88;0.30;;;;;;;;;;5047196;28;20116;-78
2023/03/14 01:06:24;;;;;;;0.30;0.20;;;;;;;;;;5049902;28;20408;-78
2023/03/14 01:08:51;;;;;;;0.77;0.35;;;;;;;;;;5053779;28;20064;-78
2023/03/14 01:11:29;;;;;;;0.40;0.20;;;;;;;;;;5069211;28;20184;-79
2023/03/14 01:13:57;;;;;;;1.83;0.30;;;;;;;;;;5053549;28;20558;-77
2023/03/14 01:16:25;;;;;;;0.52;0.30;;;;;;;;;;5052577;28;20467;-78
2023/03/14 01:18:55;;;;;;;0.30;0.20;;;;;;;;;;5056018;28;20489;-79
2023/03/14 01:21:21;;;;;;;0.70;0.15;;;;;;;;;;5054425;28;20037;-79
2023/03/14 01:23:48;;;;;;;0.88;0.20;;;;;;;;;;5051769;28;20128;-79
2023/03/14 01:26:18;;;;;;;0.32;0.20;;;;;;;;;;5085469;28;20378;-78
2023/03/14 01:28:45;;;;;;;0.40;0.20;;;;;;;;;;5054427;28;20163;-79
2023/03/14 01:31:12;;;;;;;0.32;0.22;;;;;;;;;;5053478;28;20059;-79
2023/03/14 01:33:39;;;;;;;0.57;0.30;;;;;;;;;;5051893;28;20061;-78
2023/03/14 01:36:08;;;;;;;0.52;0.30;;;;;;;;;;5035170;28;20068;-77
2023/03/14 01:38:36;;;;;;;0.55;0.28;;;;;;;;;;5051388;28;20067;-78
2023/03/14 01:41:04;;;;;;;0.40;0.20;;;;;;;;;;5051178;28;20040;-78
2023/03/14 01:43:30;;;;;;;0.10;0.10;;;;;;;;;;5084247;28;20045;-77
2023/03/14 01:46:06;;;;;;;0.73;0.20;;;;;;;;;;5049367;28;20056;-79
2023/03/14 01:48:40;;;;;;;0.40;0.30;;;;;;;;;;5048866;28;20041;-77
2023/03/14 01:51:08;;;;;;;0.30;0.20;;;;;;;;;;5050864;28;20460;-77
2023/03/14 01:53:36;;;;;;;0.30;0.20;;;;;;;;;;5050900;28;20098;-78
2023/03/14 01:56:03;;;;;;;0.30;0.20;;;;;;;;;;5052713;28;20302;-77
2023/03/14 01:58:32;;;;;;;0.30;0.20;;;;;;;;;;5033932;28;20079;-78
2023/03/14 02:01:01;;;;;;;0.40;0.20;;;;;;;;;;5032975;28;20087;-79
2023/03/14 02:03:29;;;;;;;0.25;0.20;;;;;;;;;;5020594;28;20052;-78
2023/03/14 02:05:59;;;;;;;0.75;0.20;;;;;;;;;;5029277;28;20045;-78
2023/03/14 02:08:27;;;;;;;0.68;0.20;;;;;;;;;;5073591;28;20037;-78
2023/03/14 02:10:58;;;;;;;0.35;0.30;;;;;;;;;;5034032;28;20045;-79
2023/03/14 02:13:41;;;;;;;1.13;0.30;;;;;;;;;;5031338;28;20218;-79
2023/03/14 02:16:24;;;;;;;0.20;0.20;;;;;;;;;;5060807;28;20119;-78
2023/03/14 02:19:20;;;;;;;0.55;0.20;;;;;;;;;;5047008;28;20041;-79
2023/03/14 02:22:16;;;;;;;1.23;0.40;;;;;;;;;;5043938;28;20056;-79
2023/03/14 02:24:51;;;;;;;0.70;0.25;;;;;;;;;;5052581;28;20413;-79
2023/03/14 02:27:19;;;;;;;1.60;0.40;;;;;;;;;;5052380;28;20037;-79
2023/03/14 02:29:46;;;;;;;0.65;0.40;;;;;;;;;;5059308;28;20044;-78
2023/03/14 02:32:14;;;;;;;0.50;0.32;;;;;;;;;;5056329;28;20159;-79
2023/03/14 02:34:42;;;;;;;3.63;0.30;;;;;;;;;;5052431;28;20080;-77
2023/03/14 02:37:09;;;;;;;0.47;0.35;;;;;;;;;;5052453;28;20116;-79
2023/03/14 02:39:41;;;;;;;0.20;0.20;;;;;;;;;;5051608;28;20041;-79
2023/03/14 02:42:09;;;;;;;0.50;0.30;;;;;;;;;;5051797;28;20460;-78
2023/03/14 02:44:35;;;;;;;0.82;0.30;;;;;;;;;;5051106;28;20045;-78
2023/03/14 02:47:04;;;;;;;3.50;0.50;;;;;;;;;;5049759;28;20124;-78
2023/03/14 02:49:31;;;;;;;0.30;0.20;;;;;;;;;;5048675;28;20048;-79
2023/03/14 02:51:58;;;;;;;1.85;0.57;;;;;;;;;;5050013;28;20041;-77
2023/03/14 02:54:25;;;;;;;1.15;0.30;;;;;;;;;;5049897;28;20041;-78
2023/03/14 02:56:52;;;;;;;1.23;0.40;;;;;;;;;;5051026;28;20037;-78
2023/03/14 02:59:21;;;;;;;0.30;0.30;;;;;;;;;;5051890;28;20044;-78
2023/03/14 03:01:51;;;;;;;1.02;0.30;;;;;;;;;;5047483;28;20076;-77
2023/03/14 03:04:18;;;;;;;0.57;0.40;;;;;;;;;;5050266;28;20063;-77
2023/03/14 03:06:45;;;;;;;1.85;0.45;;;;;;;;;;5051469;28;20110;-78
2023/03/14 03:09:13;;;;;;;0.43;0.30;;;;;;;;;;5049816;28;20070;-77
2023/03/14 03:11:39;;;;;;;2.35;0.30;;;;;;;;;;5025901;28;20037;-77
2023/03/14 03:14:09;;;;;;;1.38;0.40;;;;;;;;;;5053405;28;20067;-77
2023/03/14 03:16:37;;;;;;;0.80;0.28;;;;;;;;;;5021057;28;20043;-78
2023/03/14 03:19:04;;;;;;;0.30;0.30;;;;;;;;;;5058060;28;20124;-78
2023/03/14 03:21:30;;;;;;;0.65;0.30;;;;;;;;;;5056162;28;20112;-78
2023/03/14 03:23:58;;;;;;;0.47;0.30;;;;;;;;;;5072775;28;20060;-79
2023/03/14 03:26:25;;;;;;;0.80;0.40;;;;;;;;;;5053459;28;20068;-79
2023/03/14 03:28:52;;;;;;;0.45;0.32;;;;;;;;;;5051387;28;20040;-79
2023/03/14 03:31:19;;;;;;;2.13;0.40;;;;;;;;;;5052969;28;20063;-79
2023/03/14 03:33:46;;;;;;;1.33;0.30;;;;;;;;;;5052590;28;20040;-79
2023/03/14 03:36:12;;;;;;;1.38;0.40;;;;;;;;;;5055098;28;20048;-79
2023/03/14 03:38:42;;;;;;;0.50;0.30;;;;;;;;;;5054744;28;20036;-79
2023/03/14 03:41:09;;;;;;;0.68;0.40;;;;;;;;;;5072498;28;20510;-79
2023/03/14 03:43:35;;;;;;;1.85;0.32;;;;;;;;;;5070787;28;20323;-80
2023/03/14 03:46:04;;;;;;;0.95;0.32;;;;;;;;;;5054944;28;20057;-79
2023/03/14 03:48:35;;;;;;;4.20;0.47;;;;;;;;;;5040313;28;20132;-77
2023/03/14 03:51:04;;;;;;;1.88;0.45;;;;;;;;;;5056266;28;20051;-79
2023/03/14 03:53:31;;;;;;;1.35;0.40;;;;;;;;;;5053311;28;20102;-79
2023/03/14 03:56:03;;;;;;;1.80;0.45;;;;;;;;;;5054657;28;20195;-78
2023/03/14 03:58:30;;;;;;;1.08;0.30;;;;;;;;;;5050894;28;20098;-80
2023/03/14 04:00:56;;;;;;;2.50;0.80;;;;;;;;;;5048232;28;20069;-80
2023/03/14 04:03:23;;;;;;;2.13;0.50;;;;;;;;;;5070788;28;20082;-77
2023/03/14 04:06:00;;;;;;;2.30;0.60;;;;;;;;;;5091497;28;20056;-79
2023/03/14 04:08:28;;;;;;;0.57;0.30;;;;;;;;;;5090436;28;20141;-79
2023/03/14 04:10:58;;;;;;;0.90;0.40;;;;;;;;;;5060294;28;20051;-79
2023/03/14 04:13:43;;;;;;;3.53;0.50;;;;;;;;;;5057175;28;20132;-79
2023/03/14 04:16:15;;;;;;;2.08;0.30;;;;;;;;;;5049933;28;20117;-77
2023/03/14 04:18:42;;;;;;;3.78;0.47;;;;;;;;;;5049892;28;20060;-80
2023/03/14 04:21:09;;;;;;;2.42;0.63;;;;;;;;;;5051397;28;20071;-78
2023/03/14 04:23:43;;;;;;;2.45;0.70;;;;;;;;;;5047565;28;20061;-80
2023/03/14 04:26:10;;;;;;;6.15;0.52;;;;;;;;;;5062608;28;20041;-80
2023/03/14 04:28:38;;;;;;;4.97;0.60;;;;;;;;;;5046455;28;20136;-80
2023/03/14 04:31:09;;;;;;;2.78;0.60;;;;;;;;;;5048486;28;20055;-79
2023/03/14 04:33:37;;;;;;;2.17;0.57;;;;;;;;;;5045478;28;20120;-79
2023/03/14 04:36:04;;;;;;;3.42;0.50;;;;;;;;;;5031456;28;20478;-77
2023/03/14 04:38:31;;;;;;;1.88;0.57;;;;;;;;;;5029066;28;20061;-80
2023/03/14 04:40:59;;;;;;;3.60;0.60;;;;;;;;;;5032589;28;20160;-79
2023/03/14 04:43:30;;;;;;;4.47;0.70;;;;;;;;;;5029002;28;20049;-79
2023/03/14 04:46:04;;;;;;;3.70;0.50;;;;;;;;;;5029169;28;20045;-79
2023/03/14 04:48:31;;;;;;;4.50;0.60;;;;;;;;;;5034518;28;20195;-79
2023/03/14 04:50:58;;;;;;;8.13;0.70;;;;;;;;;;5033707;28;20069;-79
2023/03/14 04:53:29;;;;;;;6.47;1.27;;;;;;;;;;5027593;28;20065;-79
2023/03/14 04:55:59;;;;;;;2.03;0.60;;;;;;;;;;5028869;28;20460;-78
2023/03/14 04:58:32;;;;;;;3.42;0.57;;;;;;;;;;5027093;28;20065;-78
2023/03/14 05:01:04;;;;;;;6.57;0.73;;;;;;;;;;5030098;28;20463;-78
2023/03/14 05:03:46;;;;;;;;;;;;;;;;;;5012224;28;20049;-78
2023/03/14 05:06:17;;;;;;;5.47;0.82;;;;;;;;;;5040284;28;19972;-78
2023/03/14 05:08:44;;;;;;;7.97;0.70;;;;;;;;;;5008411;28;20050;-79
2023/03/14 05:11:20;;;;;;;2.83;0.60;;;;;;;;;;5013951;28;20514;-77
2023/03/14 05:14:05;;;;;;;3.70;0.60;;;;;;;;;;5044265;28;20055;-77
2023/03/14 05:16:57;;;;;;;3.47;0.68;;;;;;;;;;5031343;28;20052;-76
2023/03/14 05:19:34;;;;;;;3.88;0.85;;;;;;;;;;5029476;28;20432;-76
2023/03/14 05:22:37;;;;;;;5.30;0.63;;;;;;;;;;5016567;28;20200;-77
2023/03/14 05:25:36;;;;;;;3.83;0.90;;;;;;;;;;4996295;28;20045;-76
2023/03/14 05:28:12;;;;;;;4.97;0.80;;;;;;;;;;5024548;28;20557;-79
2023/03/14 05:31:06;;;;;;;6.72;0.90;;;;;;;;;;5024561;28;20045;-79
2023/03/14 05:34:01;;;;;;;4.00;0.88;;;;;;;;;;5009000;28;20049;-79
2023/03/14 05:36:34;;;;;;;4.97;0.70;;;;;;;;;;5026396;28;20057;-78
2023/03/14 05:39:21;;;;;;;4.03;0.60;;;;;;;;;;5024252;28;20297;-79
2023/03/14 05:42:10;;;;;;;6.57;0.80;;;;;;;;;;5026811;28;20048;-77
2023/03/14 05:45:03;;;;;;;5.50;0.85;;;;;;;;;;5050708;28;20033;-78
2023/03/14 05:47:51;;;;;;;5.57;0.88;;;;;;;;;;5049637;28;20031;-78
2023/03/14 05:50:41;;;;;;;4.40;0.90;;;;;;;;;;5039346;28;20120;-78
2023/03/14 05:53:31;;;;;;;3.58;0.68;;;;;;;;;;5052328;28;20071;-78
2023/03/14 05:56:13;;;;;;;4.10;0.68;;;;;;;;;;5037688;28;20072;-79
2023/03/14 05:59:13;;;;;;;6.90;0.80;;;;;;;;;;5039772;28;20045;-77
2023/03/14 06:02:00;;;;;;;12.77;1.00;;;;;;;;;;5036467;28;20448;-77
2023/03/14 06:04:36;;;;;;;5.13;0.80;;;;;;;;;;5026691;28;20059;-81
2023/03/14 06:07:18;;;;;;;2.88;0.60;;;;;;;;;;5005354;28;20052;-80
2023/03/14 06:09:45;;;;;;;2.55;0.80;;;;;;;;;;5022399;28;20050;-78
2023/03/14 06:12:14;;;;;;;3.38;0.80;;;;;;;;;;5039186;28;20092;-77
2023/03/14 06:14:42;;;;;;;4.28;0.90;;;;;;;;;;5037842;28;20317;-78
2023/03/14 06:17:09;;;;;;;3.13;0.60;;;;;;;;;;5021346;28;20160;-78
2023/03/14 06:19:45;;;;;;;2.78;0.88;;;;;;;;;;5039238;28;20124;-78
2023/03/14 06:22:13;;;;;;;5.57;1.00;;;;;;;;;;5022157;28;20547;-77
2023/03/14 06:24:40;;;;;;;3.17;0.68;;;;;;;;;;5021851;28;20042;-78
2023/03/14 06:27:06;;;;;;;3.92;0.60;;;;;;;;;;5021915;28;20052;-78
2023/03/14 06:29:33;;;;;;;2.38;0.70;;;;;;;;;;5021652;28;20052;-77
2023/03/14 06:32:01;;;;;;;3.75;0.82;;;;;;;;;;5040019;28;20041;-78
2023/03/14 06:34:27;;;;;;;3.83;0.90;;;;;;;;;;5023595;28;20048;-77
2023/03/14 06:36:54;;;;;;;3.63;0.90;;;;;;;;;;5038812;28;20506;-80
2023/03/14 06:39:20;;;;;;;3.63;0.70;;;;;;;;;;5023421;28;20077;-79
2023/03/14 06:41:53;;;;;;;4.13;0.90;;;;;;;;;;5024080;28;20087;-78
2023/03/14 06:44:19;;;;;;;3.55;0.80;;;;;;;;;;5007032;28;20710;-78
2023/03/14 06:46:46;;;;;;;5.35;0.90;;;;;;;;;;5039215;28;20046;-79
2023/03/14 06:49:13;;;;;;;5.10;1.02;;;;;;;;;;5005914;28;20455;-77
2023/03/14 06:51:40;;;;;;;5.22;0.90;;;;;;;;;;5005862;28;20045;-78
2023/03/14 06:54:08;;;;;;;3.28;0.93;;;;;;;;;;5037348;28;20422;-78
2023/03/14 06:56:35;;;;;;;2.97;0.77;;;;;;;;;;5020519;28;20041;-78
2023/03/14 06:59:02;;;;;;;4.53;0.60;;;;;;;;;;5006505;28;20053;-78
2023/03/14 07:01:32;;;;;;;0.88;0.50;;;;;;;;;;5037165;28;20041;-78
2023/03/14 07:04:09;;;;;;;2.42;0.63;;;;;;;;;;5069549;28;20327;-78
2023/03/14 07:06:39;;;;;;;5.03;0.63;;;;;;;;;;5028547;28;20041;-77
2023/03/14 07:09:06;;;;;;;2.88;0.60;;;;;;;;;;5044477;28;20037;-78
2023/03/14 07:11:36;;;;;;;1.88;0.73;;;;;;;;;;5078159;28;20060;-78
2023/03/14 07:14:03;;;;;;;2.80;0.50;;;;;;;;;;5078165;28;20080;-78
2023/03/14 07:16:32;;;;;;;2.10;0.70;;;;;;;;;;5045813;28;20049;-78
2023/03/14 07:19:00;;;;;;;5.28;0.60;;;;;;;;;;5044889;28;20127;-78
2023/03/14 07:21:26;;;;;;;1.58;0.50;;;;;;;;;;5044915;28;20053;-78
2023/03/14 07:23:53;;;;;;;2.75;0.70;;;;;;;;;;5046052;28;20140;-78
2023/03/14 07:26:20;;;;;;;4.05;0.98;;;;;;;;;;5043717;28;20052;-78
2023/03/14 07:28:49;;;;;;;4.50;0.73;;;;;;;;;;5043161;28;20505;-78
2023/03/14 07:31:18;;;;;;;2.78;0.85;;;;;;;;;;5045442;28;20539;-78
2023/03/14 07:33:45;;;;;;;3.42;0.90;;;;;;;;;;5044738;28;20056;-78
2023/03/14 07:36:12;;;;;;;4.55;0.85;;;;;;;;;;5044285;28;20067;-78
2023/03/14 07:38:42;;;;;;;7.35;0.85;;;;;;;;;;5044422;28;20064;-78
2023/03/14 07:41:09;;;;;;;7.45;1.95;;;;;;;;;;5047362;28;20052;-79
2023/03/14 07:43:41;;;;;;;4.07;0.73;;;;;;;;;;5043434;28;20619;-78
2023/03/14 07:46:08;;;;;;;2.53;0.60;;;;;;;;;;5046874;28;20091;-78
2023/03/14 07:48:35;;;;;;;2.67;0.70;;;;;;;;;;5046667;28;20033;-79
2023/03/14 07:51:01;;;;;;;4.45;0.52;;;;;;;;;;5045041;28;20098;-78
2023/03/14 07:53:28;;;;;;;4.05;0.80;;;;;;;;;;5045421;28;20116;-78
2023/03/14 07:55:54;;;;;;;9.10;1.23;;;;;;;;;;5045846;28;20566;-78
2023/03/14 07:58:21;;;;;;;2.33;0.70;;;;;;;;;;5043914;28;20118;-78
2023/03/14 08:00:48;;;;;;;4.57;0.60;;;;;;;;;;5048331;28;20064;-79
2023/03/14 08:03:16;;;;;;;6.45;0.80;;;;;;;;;;5026171;28;20049;-79
2023/03/14 08:05:49;;;;;;;3.58;0.82;;;;;;;;;;5030012;28;20107;-79
2023/03/14 08:08:16;;;;;;;3.33;0.60;;;;;;;;;;5028413;28;20037;-79
2023/03/14 08:10:42;;;;;;;3.80;0.90;;;;;;;;;;5031945;28;20044;-77
2023/03/14 08:13:10;;;;;;;6.43;0.85;;;;;;;;;;5071582;28;20045;-77
2023/03/14 08:15:36;;;;;;;1.77;0.60;;;;;;;;;;5049192;28;20041;-77
2023/03/14 08:18:04;;;;;;;3.17;0.68;;;;;;;;;;5033024;28;20060;-79
2023/03/14 08:20:30;;;;;;;2.03;0.57;;;;;;;;;;5034397;28;20390;-77
2023/03/14 08:22:57;;;;;;;2.25;0.77;;;;;;;;;;5049890;28;20141;-78
2023/03/14 08:25:24;;;;;;;3.03;0.80;;;;;;;;;;5049754;28;20372;-78
2023/03/14 08:27:51;;;;;;;3.25;0.77;;;;;;;;;;5049093;28;20052;-78
2023/03/14 08:30:18;;;;;;;3.88;0.70;;;;;;;;;;5031992;28;20053;-78
2023/03/14 08:32:45;;;;;;;2.05;0.60;;;;;;;;;;5050636;28;20141;-78
2023/03/14 08:35:11;;;;;;;4.22;0.85;;;;;;;;;;5050603;28;20124;-79
2023/03/14 08:37:38;;;;;;;3.85;1.00;;;;;;;;;;5048110;28;20076;-79
2023/03/14 08:40:09;;;;;;;4.03;0.57;;;;;;;;;;5048861;28;20056;-78
2023/03/14 08:42:37;;;;;;;2.90;0.68;;;;;;;;;;5048759;28;20460;-78
2023/03/14 08:45:04;;;;;;;2.35;0.70;;;;;;;;;;5048426;28;20128;-78
2023/03/14 08:47:30;;;;;;;5.65;0.80;;;;;;;;;;5048907;28;20048;-78
2023/03/14 08:49:57;;;;;;;4.05;0.50;;;;;;;;;;5049314;28;20045;-78
2023/03/14 08:52:24;;;;;;;3.80;0.60;;;;;;;;;;5049094;28;20037;-78
2023/03/14 08:54:50;;;;;;;1.67;0.35;;;;;;;;;;5030724;28;20040;-78
2023/03/14 08:57:17;;;;;;;1.33;0.40;;;;;;;;;;5030763;28;20401;-79
2023/03/14 08:59:43;;;;;;;2.13;0.60;;;;;;;;;;5031401;28;20047;-78
2023/03/14 09:02:11;;;;;;;1.80;0.63;;;;;;;;;;5046609;28;20072;-78
2023/03/14 09:04:39;;;;;;;1.25;0.50;;;;;;;;;;5029390;28;20037;-78
2023/03/14 09:07:05;;;;;;;1.58;0.57;;;;;;;;;;5043740;28;20047;-78
2023/03/14 09:09:32;;;;;;;2.42;0.73;;;;;;;;;;5028584;28;20073;-79
2023/03/14 09:11:59;;;;;;;2.50;0.55;;;;;;;;;;5028965;28;20049;-78
2023/03/14 09:14:26;;;;;;;5.45;0.50;;;;;;;;;;5028573;28;20510;-78
2023/03/14 09:16:52;;;;;;;3.83;0.80;;;;;;;;;;5029530;28;20049;-78
2023/03/14 09:19:19;;;;;;;0.90;0.50;;;;;;;;;;5029488;28;20404;-78
2023/03/14 09:21:46;;;;;;;1.25;0.45;;;;;;;;;;5028823;28;20060;-78
2023/03/14 09:24:12;;;;;;;4.25;0.80;;;;;;;;;;5028037;28;20053;-78
2023/03/14 09:26:39;;;;;;;1.10;0.45;;;;;;;;;;5026088;28;20037;-78
2023/03/14 09:29:06;;;;;;;1.67;0.52;;;;;;;;;;5028180;28;20129;-79
2023/03/14 09:31:33;;;;;;;1.85;0.50;;;;;;;;;;5075567;28;20086;-78
2023/03/14 09:34:00;;;;;;;4.07;0.88;;;;;;;;;;5046595;28;20044;-78
2023/03/14 09:36:26;;;;;;;3.35;0.65;;;;;;;;;;5080171;28;20144;-78
2023/03/14 09:38:53;;;;;;;3.42;0.50;;;;;;;;;;5047872;28;20131;-78
2023/03/14 09:41:19;;;;;;;3.58;0.70;;;;;;;;;;5047182;28;20041;-78
2023/03/14 09:43:48;;;;;;;3.30;0.63;;;;;;;;;;5046875;28;20056;-78
2023/03/14 09:46:14;;;;;;;3.30;0.73;;;;;;;;;;5048188;28;20456;-78
2023/03/14 09:48:42;;;;;;;3.28;0.95;;;;;;;;;;5048320;28;20159;-78
2023/03/14 09:51:14;;;;;;;2.38;1.15;;;;;;;;;;5049355;28;20247;-78
2023/03/14 09:53:42;;;;;;;3.78;0.60;;;;;;;;;;5047024;28;20037;-78
2023/03/14 09:56:14;;;;;;;2.85;0.57;;;;;;;;;;5047090;28;20045;-76
2023/03/14 09:58:42;;;;;;;4.80;0.70;;;;;;;;;;5046839;28;20049;-78
2023/03/14 10:01:10;;;;;;;2.35;0.70;;;;;;;;;;5041630;28;20498;-78
2023/03/14 10:03:37;;;;;;;1.40;0.50;;;;;;;;;;5029999;28;20343;-77
2023/03/14 10:06:10;;;;;;;2.03;0.55;;;;;;;;;;5048100;28;20462;-78
2023/03/14 10:08:41;;;;;;;2.60;0.50;;;;;;;;;;5047053;28;20132;-77
2023/03/14 10:11:13;;;;;;;1.75;0.43;;;;;;;;;;5047913;28;20068;-77
2023/03/14 10:13:48;;;;;;;2.65;0.50;;;;;;;;;;5047405;28;20140;-77
2023/03/14 10:16:15;;;;;;;3.47;0.50;;;;;;;;;;5046372;28;20102;-78
2023/03/14 10:18:45;;;;;;;2.35;0.38;;;;;;;;;;5046060;28;20256;-77
2023/03/14 10:21:25;;;;;;;2.08;0.43;;;;;;;;;;5048563;28;20450;-77
2023/03/14 10:23:52;;;;;;;5.13;0.90;;;;;;;;;;5045013;28;20490;-76
2023/03/14 10:26:24;;;;;;;1.45;0.45;;;;;;;;;;5046304;28;20545;-77
2023/03/14 10:29:00;;;;;;;4.55;0.65;;;;;;;;;;5044859;28;20252;-77
2023/03/14 10:31:27;;;;;;;6.38;0.73;;;;;;;;;;5047943;28;20072;-77
2023/03/14 10:33:58;;;;;;;2.78;0.68;;;;;;;;;;5048019;28;20065;-78
2023/03/14 10:36:28;;;;;;;4.05;0.40;;;;;;;;;;5046834;28;20037;-78
2023/03/14 10:39:04;;;;;;;2.10;0.60;;;;;;;;;;5046217;28;20095;-77
2023/03/14 10:41:31;;;;;;;3.47;0.70;;;;;;;;;;5045725;28;20209;-77
2023/03/14 10:43:58;;;;;;;2.33;0.65;;;;;;;;;;5046353;28;20483;-77
2023/03/14 10:46:26;;;;;;;5.68;0.63;;;;;;;;;;5047816;28;20056;-77
2023/03/14 10:49:11;;;;;;;;;;;;;;;;;;5047938;28;20047;-78
2023/03/14 10:51:38;;;;;;;5.20;0.47;;;;;;;;;;5046422;28;20433;-78
2023/03/14 10:54:18;;;;;;;0.80;0.40;;;;;;;;;;5035748;28;20043;-78
2023/03/14 10:56:55;;;;;;;1.55;0.40;;;;;;;;;;5045935;28;20071;-78
2023/03/14 10:59:22;;;;;;;1.50;0.40;;;;;;;;;;5045890;28;20147;-77
2023/03/14 11:02:06;;;;;;;1.45;0.57;;;;;;;;;;5030810;28;20045;-78
2023/03/14 11:04:45;;;;;;;2.03;0.40;;;;;;;;;;5007939;28;20307;-79
2023/03/14 11:07:12;;;;;;;2.53;0.50;;;;;;;;;;5007588;28;20049;-80
2023/03/14 11:09:52;;;;;;;3.13;0.50;;;;;;;;;;5007261;28;20088;-78
2023/03/14 11:12:29;;;;;;;1.33;0.60;;;;;;;;;;5008835;28;20045;-79
2023/03/14 11:15:01;;;;;;;2.05;0.55;;;;;;;;;;5026489;28;20037;-78
2023/03/14 11:17:41;;;;;;;2.05;0.40;;;;;;;;;;5008291;28;20033;-78
2023/03/14 11:20:09;;;;;;;4.22;0.80;;;;;;;;;;5023881;28;20037;-78
2023/03/14 11:22:40;;;;;;;1.85;0.60;;;;;;;;;;5009421;28;20046;-78
2023/03/14 11:25:07;;;;;;;3.20;0.40;;;;;;;;;;5028764;28;20077;-78
2023/03/14 11:27:39;;;;;;;1.80;0.45;;;;;;;;;;5009953;28;20041;-78
2023/03/14 11:30:14;;;;;;;0.85;0.40;;;;;;;;;;5010776;28;20053;-78
2023/03/14 11:32:46;;;;;;;2.65;0.40;;;;;;;;;;4994421;28;20100;-76
2023/03/14 11:35:23;;;;;;;1.05;0.45;;;;;;;;;;5009529;28;20060;-78
2023/03/14 11:37:55;;;;;;;2.58;0.70;;;;;;;;;;5028764;28;20471;-78
2023/03/14 11:40:25;;;;;;;2.58;0.30;;;;;;;;;;5008232;28;20128;-78
2023/03/14 11:43:07;;;;;;;3.40;0.40;;;;;;;;;;5026314;28;20050;-77
2023/03/14 11:45:35;;;;;;;1.25;0.50;;;;;;;;;;5009378;28;20060;-78
2023/03/14 11:48:32;;;;;;;1.20;0.30;;;;;;;;;;5026681;28;20049;-77
2023/03/14 11:51:01;;;;;;;1.30;0.30;;;;;;;;;;5029023;28;20128;-77
2023/03/14 11:53:28;;;;;;;1.02;0.30;;;;;;;;;;5024580;28;20038;-78
2023/03/14 11:55:55;;;;;;;1.15;0.25;;;;;;;;;;5009172;28;23506;-77
2023/03/14 11:58:30;;;;;;;2.40;0.30;;;;;;;;;;5040887;28;20060;-79
2023/03/14 12:00:59;;;;;;;1.20;0.40;;;;;;;;;;5037655;28;20041;-79
2023/03/14 12:03:35;;;;;;;1.45;0.30;;;;;;;;;;5046868;28;20045;-79
2023/03/14 12:06:21;;;;;;;1.77;0.30;;;;;;;;;;5049342;28;20048;-76
2023/03/14 12:08:47;;;;;;;;;;;;;;;;;;5028338;28;20461;-77
2023/03/14 12:11:25;;;;;;;0.55;0.30;;;;;;;;;;5028224;28;19928;-77
2023/03/14 12:13:52;;;;;;;0.63;0.30;;;;;;;;;;5008982;28;20514;-78
2023/03/14 12:16:25;;;;;;;1.15;0.20;;;;;;;;;;5008791;28;20045;-78
2023/03/14 12:18:52;;;;;;;2.42;0.50;;;;;;;;;;5029599;28;20050;-76
2023/03/14 12:21:19;;;;;;;1.40;0.30;;;;;;;;;;5029294;28;20037;-78
2023/03/14 12:23:50;;;;;;;1.00;0.25;;;;;;;;;;5026703;28;20054;-79
2023/03/14 12:26:17;;;;;;;1.25;0.30;;;;;;;;;;4992011;28;20045;-78
2023/03/14 12:28:52;;;;;;;1.17;0.40;;;;;;;;;;5026131;28;20104;-78
2023/03/14 12:31:31;;;;;;;1.65;0.30;;;;;;;;;;5027827;28;20099;-78
2023/03/14 12:34:23;;;;;;;2.80;0.50;;;;;;;;;;5027322;28;20398;-77
2023/03/14 12:36:59;;;;;;;2.65;0.47;;;;;;;;;;5028227;28;20575;-79
2023/03/14 12:39:26;;;;;;;2.08;0.47;;;;;;;;;;5030351;28;20251;-79
2023/03/14 12:41:59;;;;;;;0.40;0.20;;;;;;;;;;5047709;28;20160;-79
2023/03/14 12:44:28;;;;;;;0.75;0.20;;;;;;;;;;5047507;28;20087;-78
2023/03/14 12:47:14;;;;;;;1.85;0.47;;;;;;;;;;5048788;28;20041;-80
2023/03/14 12:49:40;;;;;;;1.30;0.30;;;;;;;;;;5051501;28;20044;-77
2023/03/14 12:52:14;;;;;;;0.75;0.20;;;;;;;;;;5037888;28;20057;-78
2023/03/14 12:54:43;;;;;;;0.90;0.43;;;;;;;;;;5026782;28;20049;-78
2023/03/14 12:57:28;;;;;;;0.88;0.30;;;;;;;;;;5020871;28;20052;-78
2023/03/14 12:59:59;;;;;;;1.95;0.30;;;;;;;;;;5007679;28;20131;-78
2023/03/14 13:02:27;;;;;;;2.20;0.40;;;;;;;;;;5030195;28;20229;-78
2023/03/14 13:05:00;;;;;;;1.25;0.40;;;;;;;;;;5044359;28;20497;-78
2023/03/14 13:07:44;;;;;;;1.58;0.40;;;;;;;;;;5028719;28;20053;-78
2023/03/14 13:10:10;;;;;;;1.98;0.30;;;;;;;;;;5029814;28;20072;-78
2023/03/14 13:12:43;;;;;;;2.10;0.40;;;;;;;;;;5029516;28;20136;-79
2023/03/14 13:15:23;;;;;;;0.20;0.10;;;;;;;;;;5030307;28;20034;-78
2023/03/14 13:17:51;;;;;;;1.85;0.30;;;;;;;;;;5030076;28;20124;-79
2023/03/14 13:20:22;;;;;;;1.40;0.40;;;;;;;;;;5028451;28;20505;-78
2023/03/14 13:22:50;;;;;;;1.88;0.40;;;;;;;;;;5030026;28;20049;-79
2023/03/14 13:25:20;;;;;;;0.63;0.30;;;;;;;;;;5060828;28;20159;-77
2023/03/14 13:27:47;;;;;;;0.60;0.30;;;;;;;;;;5027870;28;20414;-79
2023/03/14 13:30:20;;;;;;;1.42;0.40;;;;;;;;;;5029839;28;20045;-78
2023/03/14 13:32:47;;;;;;;3.03;0.30;;;;;;;;;;5028971;28;20056;-78
2023/03/14 13:35:15;;;;;;;2.15;0.50;;;;;;;;;;5062767;28;20590;-79
2023/03/14 13:37:42;;;;;;;0.80;0.30;;;;;;;;;;5029282;28;20083;-77
2023/03/14 13:40:18;;;;;;;0.32;0.28;;;;;;;;;;5032345;28;20064;-79
2023/03/14 13:42:45;;;;;;;1.08;0.40;;;;;;;;;;5030760;28;20057;-78
2023/03/14 13:45:13;;;;;;;1.17;0.40;;;;;;;;;;5027718;28;20813;-78
2023/03/14 13:47:40;;;;;;;0.70;0.38;;;;;;;;;;5030803;28;20083;-78
2023/03/14 13:50:14;;;;;;;1.15;0.32;;;;;;;;;;5061586;28;20045;-78
2023/03/14 13:52:40;;;;;;;0.77;0.20;;;;;;;;;;5036302;28;20049;-79
2023/03/14 13:55:15;;;;;;;0.73;0.50;;;;;;;;;;5064052;28;20088;-77
2023/03/14 13:57:43;;;;;;;2.87;0.67;;;;;;;;;;5028928;28;20155;-77
2023/03/14 14:00:20;;;;;;;3.53;0.40;;;;;;;;;;5028024;28;20261;-77
2023/03/14 14:02:48;;;;;;;0.85;0.40;;;;;;;;;;5026520;28;20078;-77
2023/03/14 14:05:14;;;;;;;1.23;0.30;;;;;;;;;;5027697;28;20104;-78
2023/03/14 14:07:43;;;;;;;0.77;0.28;;;;;;;;;;5025533;28;20088;-77
2023/03/14 14:10:11;;;;;;;1.23;0.40;;;;;;;;;;5024437;28;20046;-78
2023/03/14 14:12:40;;;;;;;0.82;0.40;;;;;;;;;;5026233;28;20072;-78
2023/03/14 14:15:10;;;;;;;1.70;0.43;;;;;;;;;;5007091;28;20050;-77
2023/03/14 14:17:42;;;;;;;1.20;0.40;;;;;;;;;;5027110;28;20037;-77
2023/03/14 14:20:21;;;;;;;1.33;0.35;;;;;;;;;;5025610;28;20123;-77
2023/03/14 14:22:48;;;;;;;1.92;0.40;;;;;;;;;;5025487;28;20053;-78
2023/03/14 14:25:15;;;;;;;2.38;0.45;;;;;;;;;;5027279;28;20052;-78
2023/03/14 14:27:43;;;;;;;0.95;0.38;;;;;;;;;;5024433;28;20084;-79
2023/03/14 14:30:19;;;;;;;1.17;0.43;;;;;;;;;;5029337;28;20037;-79
2023/03/14 14:32:45;;;;;;;;;;;;;;;;;;5030415;28;20572;-78
2023/03/14 14:35:25;;;;;;;0.32;0.15;;;;;;;;;;5029937;28;20328;-78
2023/03/14 14:37:52;;;;;;;1.13;0.30;;;;;;;;;;5029561;28;20083;-77
2023/03/14 14:40:20;;;;;;;1.95;0.40;;;;;;;;;;5028488;28;20049;-76
2023/03/14 14:42:48;;;;;;;1.15;0.30;;;;;;;;;;5031415;28;20502;-75
2023/03/14 14:45:20;;;;;;;3.88;0.35;;;;;;;;;;5031263;28;20144;-76
2023/03/14 14:47:54;;;;;;;1.30;0.57;;;;;;;;;;5030231;28;20049;-77
2023/03/14 14:50:30;;;;;;;2.22;0.50;;;;;;;;;;5029078;28;20144;-79
2023/03/14 14:52:58;;;;;;;0.88;0.30;;;;;;;;;;5025425;28;20045;-77
2023/03/14 14:55:30;;;;;;;2.67;0.50;;;;;;;;;;5030488;28;20532;-77
2023/03/14 14:57:57;;;;;;;1.10;0.40;;;;;;;;;;5023700;28;20517;-76
2023/03/14 15:00:25;;;;;;;3.60;0.50;;;;;;;;;;5028588;28;20453;-78
2023/03/14 15:02:54;;;;;;;1.13;0.50;;;;;;;;;;5028181;28;20095;-78